HKE331 VHHH-ZSPD
Flight info
| Callsign | HKE331 |
|---|---|
| Flight time | 1h 53m |
| Altitude | 35100 |
| Route | LEKEN V601 DOTMI A470 LJG B221 SHZ W58 BK BK81A |
| Aircraft | A321/M-SDE3FGHIRWY/LB1 |
Departure
| Time | 2026-05-06 23:08 |
|---|---|
| Airport | Hong Kong International Airport (VHHH) |
Arrival
| Time | 2026-05-07 01:01 |
|---|---|
| Airport | Shanghai Pudong International Airport (ZSPD) |
| Time | Latitude | Longitude | Altitude | Speed | Heading |
|---|---|---|---|---|---|
| 2026-05-06 22:42 | 22.31102 | 113.91649 | 34 ft | 0 kts | 71° |
| 2026-05-06 22:58 | 22.31101 | 113.91646 | 34 ft | 3 kts | 71° |
| 2026-05-06 22:58 | 22.31092 | 113.91618 | 34 ft | 4 kts | 71° |
| 2026-05-06 22:58 | 22.31083 | 113.91591 | 32 ft | 4 kts | 71° |
| 2026-05-06 22:59 | 22.31076 | 113.91569 | 34 ft | 4 kts | 58° |
| 2026-05-06 22:59 | 22.31059 | 113.91554 | 32 ft | 4 kts | 356° |
| 2026-05-06 22:59 | 22.31035 | 113.91560 | 33 ft | 4 kts | 341° |
| 2026-05-06 22:59 | 22.31009 | 113.91570 | 33 ft | 4 kts | 341° |
| 2026-05-06 23:00 | 22.30983 | 113.91580 | 35 ft | 4 kts | 341° |
| 2026-05-06 23:00 | 22.30961 | 113.91588 | 35 ft | 1 kts | 341° |
| 2026-05-06 23:02 | 22.30969 | 113.91585 | 35 ft | 3 kts | 341° |
| 2026-05-06 23:02 | 22.31006 | 113.91571 | 35 ft | 8 kts | 341° |
| 2026-05-06 23:02 | 22.31070 | 113.91547 | 35 ft | 13 kts | 341° |
| 2026-05-06 23:03 | 22.31177 | 113.91507 | 35 ft | 18 kts | 341° |
| 2026-05-06 23:03 | 22.31299 | 113.91461 | 35 ft | 19 kts | 341° |
| 2026-05-06 23:03 | 22.31409 | 113.91413 | 35 ft | 13 kts | 315° |
| 2026-05-06 23:03 | 22.31402 | 113.91317 | 35 ft | 15 kts | 252° |
| 2026-05-06 23:04 | 22.31365 | 113.91202 | 35 ft | 18 kts | 250° |
| 2026-05-06 23:04 | 22.31322 | 113.91072 | 34 ft | 19 kts | 250° |
| 2026-05-06 23:04 | 22.31279 | 113.90936 | 35 ft | 19 kts | 252° |
| 2026-05-06 23:04 | 22.31235 | 113.90799 | 35 ft | 20 kts | 250° |
| 2026-05-06 23:05 | 22.31188 | 113.90657 | 35 ft | 20 kts | 250° |
| 2026-05-06 23:05 | 22.31136 | 113.90499 | 34 ft | 23 kts | 251° |
| 2026-05-06 23:05 | 22.31084 | 113.90333 | 35 ft | 24 kts | 250° |
| 2026-05-06 23:05 | 22.31029 | 113.90165 | 36 ft | 24 kts | 251° |
| 2026-05-06 23:06 | 22.30978 | 113.90005 | 36 ft | 19 kts | 250° |
| 2026-05-06 23:06 | 22.30972 | 113.89905 | 34 ft | 13 kts | 309° |
| 2026-05-06 23:06 | 22.31055 | 113.89868 | 36 ft | 14 kts | 342° |
| 2026-05-06 23:06 | 22.31127 | 113.89901 | 33 ft | 13 kts | 69° |
| 2026-05-06 23:07 | 22.31191 | 113.90097 | 36 ft | 58 kts | 71° |
| 2026-05-06 23:07 | 22.31396 | 113.90739 | 36 ft | 121 kts | 71° |
| 2026-05-06 23:07 | 22.31731 | 113.91773 | 36 ft | 169 kts | 70° |
| 2026-05-06 23:07 | 22.32141 | 113.92987 | 597 ft | 167 kts | 70° |
| 2026-05-06 23:08 | 22.32543 | 113.94152 | 1299 ft | 165 kts | 72° |
| 2026-05-06 23:08 | 22.32922 | 113.95332 | 1882 ft | 169 kts | 73° |
| 2026-05-06 23:08 | 22.33315 | 113.96608 | 2096 ft | 190 kts | 76° |
| 2026-05-06 23:08 | 22.33592 | 113.98058 | 2316 ft | 208 kts | 82° |
| 2026-05-06 23:09 | 22.33840 | 113.99631 | 2698 ft | 216 kts | 83° |
| 2026-05-06 23:09 | 22.34092 | 114.01249 | 3133 ft | 221 kts | 83° |
| 2026-05-06 23:09 | 22.34353 | 114.02907 | 3541 ft | 225 kts | 84° |
| 2026-05-06 23:09 | 22.34294 | 114.04590 | 3985 ft | 227 kts | 105° |
| 2026-05-06 23:10 | 22.33684 | 114.06145 | 4545 ft | 225 kts | 125° |
| 2026-05-06 23:10 | 22.32625 | 114.07385 | 5060 ft | 227 kts | 144° |
| 2026-05-06 23:10 | 22.31224 | 114.08273 | 5304 ft | 241 kts | 160° |
| 2026-05-06 23:10 | 22.29568 | 114.08699 | 5738 ft | 248 kts | 177° |
| 2026-05-06 23:11 | 22.27824 | 114.08707 | 6210 ft | 259 kts | 182° |
| 2026-05-06 23:11 | 22.25970 | 114.08685 | 6579 ft | 271 kts | 182° |
| 2026-05-06 23:11 | 22.24061 | 114.08668 | 7137 ft | 276 kts | 182° |
| 2026-05-06 23:11 | 22.22173 | 114.08910 | 7704 ft | 283 kts | 160° |
| 2026-05-06 23:12 | 22.20523 | 114.10104 | 8259 ft | 291 kts | 136° |
| 2026-05-06 23:12 | 22.19508 | 114.12002 | 8796 ft | 299 kts | 107° |
| 2026-05-06 23:12 | 22.18976 | 114.14190 | 9321 ft | 304 kts | 111° |
| 2026-05-06 23:12 | 22.18079 | 114.16257 | 9864 ft | 306 kts | 121° |
| 2026-05-06 23:13 | 22.16987 | 114.18252 | 10227 ft | 316 kts | 124° |
| 2026-05-06 23:13 | 22.15756 | 114.20304 | 10347 ft | 335 kts | 125° |
| 2026-05-06 23:13 | 22.14430 | 114.22458 | 10467 ft | 354 kts | 125° |
| 2026-05-06 23:13 | 22.13042 | 114.24729 | 10575 ft | 371 kts | 125° |
| 2026-05-06 23:14 | 22.11613 | 114.27105 | 10763 ft | 384 kts | 124° |
| 2026-05-06 23:14 | 22.10166 | 114.29558 | 11182 ft | 389 kts | 124° |
| 2026-05-06 23:14 | 22.08723 | 114.32042 | 11657 ft | 393 kts | 123° |
| 2026-05-06 23:14 | 22.07282 | 114.34555 | 12157 ft | 395 kts | 123° |
| 2026-05-06 23:15 | 22.05832 | 114.37085 | 12653 ft | 398 kts | 123° |
| 2026-05-06 23:15 | 22.04367 | 114.39635 | 13148 ft | 401 kts | 123° |
| 2026-05-06 23:15 | 22.02889 | 114.42192 | 13661 ft | 403 kts | 124° |
| 2026-05-06 23:15 | 22.01476 | 114.44625 | 14091 ft | 406 kts | 124° |
| 2026-05-06 23:16 | 21.99986 | 114.47182 | 14527 ft | 409 kts | 124° |
| 2026-05-06 23:16 | 21.98555 | 114.49639 | 14948 ft | 412 kts | 124° |
| 2026-05-06 23:16 | 21.97139 | 114.52272 | 15365 ft | 417 kts | 117° |
| 2026-05-06 23:16 | 21.96107 | 114.55204 | 15789 ft | 422 kts | 107° |
| 2026-05-06 23:17 | 21.95440 | 114.58294 | 16218 ft | 425 kts | 104° |
| 2026-05-06 23:17 | 21.94936 | 114.61449 | 16634 ft | 430 kts | 93° |
| 2026-05-06 23:17 | 21.95189 | 114.64664 | 17049 ft | 433 kts | 76° |
| 2026-05-06 23:17 | 21.96295 | 114.67687 | 17459 ft | 435 kts | 59° |
| 2026-05-06 23:18 | 21.97876 | 114.70478 | 17880 ft | 438 kts | 57° |
| 2026-05-06 23:18 | 21.99487 | 114.73274 | 18295 ft | 441 kts | 57° |
| 2026-05-06 23:18 | 22.01112 | 114.76093 | 18644 ft | 443 kts | 57° |
| 2026-05-06 23:18 | 22.02742 | 114.78924 | 18993 ft | 446 kts | 57° |
| 2026-05-06 23:19 | 22.04374 | 114.81773 | 19326 ft | 448 kts | 57° |
| 2026-05-06 23:19 | 22.05941 | 114.84633 | 19659 ft | 450 kts | 59° |
| 2026-05-06 23:19 | 22.07465 | 114.87595 | 19967 ft | 453 kts | 60° |
| 2026-05-06 23:19 | 22.08976 | 114.90646 | 20284 ft | 456 kts | 61° |
| 2026-05-06 23:20 | 22.10436 | 114.93640 | 20591 ft | 458 kts | 61° |
| 2026-05-06 23:20 | 22.11927 | 114.96686 | 20910 ft | 460 kts | 61° |
| 2026-05-06 23:20 | 22.13438 | 114.99738 | 21206 ft | 462 kts | 60° |
| 2026-05-06 23:20 | 22.14974 | 115.02801 | 21517 ft | 464 kts | 60° |
| 2026-05-06 23:21 | 22.16521 | 115.05864 | 21817 ft | 466 kts | 60° |
| 2026-05-06 23:21 | 22.18077 | 115.08938 | 22117 ft | 468 kts | 60° |
| 2026-05-06 23:21 | 22.19641 | 115.12024 | 22390 ft | 470 kts | 60° |
| 2026-05-06 23:21 | 22.21209 | 115.15126 | 22664 ft | 472 kts | 60° |
| 2026-05-06 23:22 | 22.22783 | 115.18249 | 22935 ft | 474 kts | 60° |
| 2026-05-06 23:22 | 22.24360 | 115.21380 | 23208 ft | 476 kts | 60° |
| 2026-05-06 23:22 | 22.25943 | 115.24529 | 23477 ft | 478 kts | 60° |
| 2026-05-06 23:22 | 22.27528 | 115.27690 | 23710 ft | 480 kts | 60° |
| 2026-05-06 23:23 | 22.29119 | 115.30862 | 23944 ft | 481 kts | 60° |
| 2026-05-06 23:23 | 22.30718 | 115.34053 | 24172 ft | 483 kts | 60° |
| 2026-05-06 23:23 | 22.32320 | 115.37246 | 24424 ft | 484 kts | 60° |
| 2026-05-06 23:23 | 22.33925 | 115.40447 | 24659 ft | 485 kts | 60° |
| 2026-05-06 23:24 | 22.35537 | 115.43665 | 24898 ft | 487 kts | 60° |
| 2026-05-06 23:24 | 22.37149 | 115.46886 | 25124 ft | 488 kts | 60° |
| 2026-05-06 23:24 | 22.38764 | 115.50119 | 25352 ft | 490 kts | 60° |
| 2026-05-06 23:24 | 22.40384 | 115.53361 | 25576 ft | 491 kts | 60° |
| 2026-05-06 23:25 | 22.42009 | 115.56613 | 25800 ft | 493 kts | 60° |
| 2026-05-06 23:25 | 22.43640 | 115.59875 | 26022 ft | 494 kts | 60° |
| 2026-05-06 23:25 | 22.45274 | 115.63149 | 26251 ft | 496 kts | 60° |
| 2026-05-06 23:25 | 22.46886 | 115.66391 | 26498 ft | 497 kts | 60° |
| 2026-05-06 23:26 | 22.48523 | 115.69684 | 26747 ft | 498 kts | 60° |
| 2026-05-06 23:26 | 22.50171 | 115.72991 | 26987 ft | 499 kts | 59° |
| 2026-05-06 23:26 | 22.51822 | 115.76300 | 27211 ft | 501 kts | 59° |
| 2026-05-06 23:26 | 22.53474 | 115.79618 | 27489 ft | 501 kts | 59° |
| 2026-05-06 23:27 | 22.55121 | 115.82934 | 27823 ft | 500 kts | 59° |
| 2026-05-06 23:27 | 22.56762 | 115.86245 | 28144 ft | 499 kts | 59° |
| 2026-05-06 23:27 | 22.58404 | 115.89559 | 28468 ft | 498 kts | 59° |
| 2026-05-06 23:27 | 22.60037 | 115.92862 | 28797 ft | 498 kts | 59° |
| 2026-05-06 23:28 | 22.61666 | 115.96161 | 29119 ft | 497 kts | 59° |
| 2026-05-06 23:28 | 22.63290 | 115.99458 | 29471 ft | 495 kts | 59° |
| 2026-05-06 23:28 | 22.64363 | 116.01639 | 29698 ft | 495 kts | 59° |
| 2026-05-06 23:28 | 22.65977 | 116.04922 | 30029 ft | 494 kts | 59° |
| 2026-05-06 23:29 | 22.67590 | 116.08200 | 30308 ft | 493 kts | 59° |
| 2026-05-06 23:29 | 22.69204 | 116.11480 | 30574 ft | 493 kts | 59° |
| 2026-05-06 23:29 | 22.70954 | 116.14653 | 30821 ft | 489 kts | 51° |
| 2026-05-06 23:29 | 22.73102 | 116.17493 | 31079 ft | 485 kts | 42° |
| 2026-05-06 23:30 | 22.75593 | 116.19938 | 31300 ft | 481 kts | 34° |
| 2026-05-06 23:30 | 22.78251 | 116.22136 | 31531 ft | 481 kts | 33° |
| 2026-05-06 23:30 | 22.80909 | 116.24333 | 31787 ft | 480 kts | 33° |
| 2026-05-06 23:30 | 22.83567 | 116.26537 | 32059 ft | 480 kts | 33° |
| 2026-05-06 23:31 | 22.86212 | 116.28737 | 32334 ft | 479 kts | 33° |
| 2026-05-06 23:31 | 22.88852 | 116.30937 | 32598 ft | 478 kts | 33° |
| 2026-05-06 23:31 | 22.91495 | 116.33140 | 32855 ft | 478 kts | 33° |
| 2026-05-06 23:31 | 22.94131 | 116.35337 | 33115 ft | 478 kts | 33° |
| 2026-05-06 23:32 | 22.96730 | 116.37499 | 33369 ft | 477 kts | 33° |
| 2026-05-06 23:32 | 22.99368 | 116.39680 | 33624 ft | 476 kts | 33° |
| 2026-05-06 23:32 | 23.02007 | 116.41853 | 33884 ft | 476 kts | 33° |
| 2026-05-06 23:32 | 23.04644 | 116.44023 | 34113 ft | 476 kts | 33° |
| 2026-05-06 23:33 | 23.07279 | 116.46193 | 34326 ft | 475 kts | 33° |
| 2026-05-06 23:33 | 23.09912 | 116.48364 | 34523 ft | 475 kts | 33° |
| 2026-05-06 23:33 | 23.12547 | 116.50542 | 34724 ft | 475 kts | 33° |
| 2026-05-06 23:33 | 23.15175 | 116.52717 | 34918 ft | 475 kts | 33° |
| 2026-05-06 23:34 | 23.17812 | 116.54901 | 34988 ft | 476 kts | 33° |
| 2026-05-06 23:34 | 23.23082 | 116.59270 | 35016 ft | 476 kts | 33° |
| 2026-05-06 23:35 | 23.28355 | 116.63648 | 35001 ft | 477 kts | 33° |
| 2026-05-06 23:35 | 23.33622 | 116.68015 | 35002 ft | 477 kts | 33° |
| 2026-05-06 23:36 | 23.38889 | 116.72397 | 35000 ft | 477 kts | 33° |
| 2026-05-06 23:36 | 23.44086 | 116.76831 | 35003 ft | 480 kts | 38° |
| 2026-05-06 23:37 | 23.48761 | 116.82058 | 35020 ft | 482 kts | 42° |
| 2026-05-06 23:37 | 23.53416 | 116.87344 | 35021 ft | 483 kts | 42° |
| 2026-05-06 23:38 | 23.58064 | 116.92622 | 35022 ft | 483 kts | 42° |
| 2026-05-06 23:38 | 23.62720 | 116.97907 | 35024 ft | 483 kts | 42° |
| 2026-05-06 23:39 | 23.67373 | 117.03195 | 35026 ft | 483 kts | 42° |
| 2026-05-06 23:39 | 23.72020 | 117.08494 | 35040 ft | 483 kts | 42° |
| 2026-05-06 23:40 | 23.76665 | 117.13788 | 35034 ft | 482 kts | 41° |
| 2026-05-06 23:40 | 23.81500 | 117.18772 | 35033 ft | 480 kts | 37° |
| 2026-05-06 23:41 | 23.86549 | 117.23522 | 35025 ft | 479 kts | 36° |
| 2026-05-06 23:41 | 23.91595 | 117.28293 | 35017 ft | 479 kts | 37° |
| 2026-05-06 23:42 | 23.96565 | 117.33146 | 35020 ft | 479 kts | 37° |
| 2026-05-06 23:42 | 24.01515 | 117.38038 | 35015 ft | 479 kts | 37° |
| 2026-05-06 23:43 | 24.06471 | 117.42913 | 35016 ft | 479 kts | 37° |
| 2026-05-06 23:43 | 24.11439 | 117.47786 | 35021 ft | 481 kts | 37° |
| 2026-05-06 23:44 | 24.16191 | 117.52955 | 35025 ft | 484 kts | 43° |
| 2026-05-06 23:44 | 24.20736 | 117.58397 | 35036 ft | 484 kts | 43° |
| 2026-05-06 23:45 | 24.25270 | 117.63847 | 35029 ft | 484 kts | 43° |
| 2026-05-06 23:45 | 24.29775 | 117.69267 | 35030 ft | 484 kts | 43° |
| 2026-05-06 23:46 | 24.34317 | 117.74718 | 35025 ft | 484 kts | 43° |
| 2026-05-06 23:46 | 24.38848 | 117.80175 | 35025 ft | 484 kts | 43° |
| 2026-05-06 23:47 | 24.43382 | 117.85642 | 35038 ft | 484 kts | 43° |
| 2026-05-06 23:47 | 24.47903 | 117.91101 | 35037 ft | 483 kts | 43° |
| 2026-05-06 23:48 | 24.52426 | 117.96558 | 35035 ft | 483 kts | 43° |
| 2026-05-06 23:48 | 24.56942 | 118.02016 | 35036 ft | 482 kts | 43° |
| 2026-05-06 23:49 | 24.61522 | 118.07325 | 35023 ft | 481 kts | 41° |
| 2026-05-06 23:49 | 24.66227 | 118.12580 | 35043 ft | 481 kts | 41° |
| 2026-05-06 23:50 | 24.70884 | 118.17801 | 35036 ft | 480 kts | 41° |
| 2026-05-06 23:50 | 24.77861 | 118.25768 | 35034 ft | 480 kts | 42° |
| 2026-05-06 23:51 | 24.82469 | 118.31042 | 35041 ft | 480 kts | 41° |
| 2026-05-06 23:51 | 24.87102 | 118.36334 | 35047 ft | 480 kts | 41° |
| 2026-05-06 23:52 | 24.91737 | 118.41637 | 35059 ft | 479 kts | 41° |
| 2026-05-06 23:52 | 24.96333 | 118.46906 | 35044 ft | 479 kts | 41° |
| 2026-05-06 23:53 | 25.00965 | 118.52212 | 35050 ft | 478 kts | 41° |
| 2026-05-06 23:53 | 25.05556 | 118.57470 | 35048 ft | 478 kts | 41° |
| 2026-05-06 23:54 | 25.10162 | 118.62766 | 35051 ft | 478 kts | 42° |
| 2026-05-06 23:54 | 25.14689 | 118.68166 | 35056 ft | 478 kts | 43° |
| 2026-05-06 23:55 | 25.19132 | 118.73607 | 35035 ft | 479 kts | 43° |
| 2026-05-06 23:55 | 25.23608 | 118.79064 | 35038 ft | 479 kts | 43° |
| 2026-05-06 23:56 | 25.28106 | 118.84500 | 35037 ft | 479 kts | 43° |
| 2026-05-06 23:56 | 25.32580 | 118.89897 | 35049 ft | 479 kts | 43° |
| 2026-05-06 23:57 | 25.37101 | 118.95315 | 35040 ft | 479 kts | 42° |
| 2026-05-06 23:57 | 25.41696 | 119.00660 | 35031 ft | 479 kts | 41° |
| 2026-05-06 23:58 | 25.46282 | 119.05968 | 35025 ft | 479 kts | 41° |
| 2026-05-06 23:58 | 25.50888 | 119.11328 | 35030 ft | 480 kts | 41° |
| 2026-05-06 23:59 | 25.55485 | 119.16712 | 35041 ft | 480 kts | 41° |
| 2026-05-06 23:59 | 25.60043 | 119.22074 | 35040 ft | 481 kts | 41° |
| 2026-05-07 00:00 | 25.64633 | 119.27474 | 35030 ft | 480 kts | 41° |
| 2026-05-07 00:00 | 25.68455 | 119.31966 | 35029 ft | 481 kts | 41° |
| 2026-05-07 00:01 | 25.74184 | 119.37680 | 35027 ft | 470 kts | 26° |
| 2026-05-07 00:01 | 25.80066 | 119.40564 | 35038 ft | 456 kts | 11° |
| 2026-05-07 00:02 | 25.86117 | 119.42604 | 35036 ft | 457 kts | 11° |
| 2026-05-07 00:02 | 25.92206 | 119.44664 | 35035 ft | 457 kts | 11° |
| 2026-05-07 00:03 | 25.98305 | 119.46734 | 35035 ft | 458 kts | 11° |
| 2026-05-07 00:03 | 26.04364 | 119.48807 | 35031 ft | 458 kts | 11° |
| 2026-05-07 00:04 | 26.10464 | 119.50891 | 35029 ft | 458 kts | 11° |
| 2026-05-07 00:04 | 26.16561 | 119.52973 | 35031 ft | 458 kts | 11° |
| 2026-05-07 00:05 | 26.22610 | 119.55362 | 35026 ft | 466 kts | 21° |
| 2026-05-07 00:05 | 26.28202 | 119.59163 | 35031 ft | 472 kts | 26° |
| 2026-05-07 00:06 | 26.33761 | 119.63056 | 35021 ft | 472 kts | 26° |
| 2026-05-07 00:06 | 26.39305 | 119.66932 | 35026 ft | 473 kts | 26° |
| 2026-05-07 00:07 | 26.44885 | 119.70839 | 35031 ft | 473 kts | 26° |
| 2026-05-07 00:07 | 26.50462 | 119.74753 | 35033 ft | 474 kts | 26° |
| 2026-05-07 00:08 | 26.56060 | 119.78682 | 35028 ft | 475 kts | 26° |
| 2026-05-07 00:08 | 26.61634 | 119.82597 | 35028 ft | 475 kts | 26° |
| 2026-05-07 00:09 | 26.67238 | 119.86540 | 35029 ft | 476 kts | 26° |
| 2026-05-07 00:09 | 26.72845 | 119.90495 | 35035 ft | 476 kts | 26° |
| 2026-05-07 00:10 | 26.78425 | 119.94432 | 35030 ft | 477 kts | 26° |
| 2026-05-07 00:10 | 26.84045 | 119.98399 | 35034 ft | 478 kts | 26° |
| 2026-05-07 00:11 | 26.89672 | 120.02378 | 35036 ft | 478 kts | 26° |
| 2026-05-07 00:11 | 26.95301 | 120.06358 | 35044 ft | 478 kts | 26° |
| 2026-05-07 00:12 | 27.00932 | 120.10346 | 35037 ft | 478 kts | 26° |
| 2026-05-07 00:12 | 27.06557 | 120.14346 | 35038 ft | 479 kts | 27° |
| 2026-05-07 00:13 | 27.12187 | 120.18355 | 35039 ft | 480 kts | 27° |
| 2026-05-07 00:13 | 27.17802 | 120.22343 | 35047 ft | 480 kts | 26° |
| 2026-05-07 00:14 | 27.23466 | 120.26334 | 35043 ft | 480 kts | 26° |
| 2026-05-07 00:14 | 27.29137 | 120.30331 | 35035 ft | 480 kts | 26° |
| 2026-05-07 00:15 | 27.34805 | 120.34341 | 35036 ft | 481 kts | 26° |
| 2026-05-07 00:15 | 27.40431 | 120.38331 | 35053 ft | 481 kts | 26° |
| 2026-05-07 00:16 | 27.46096 | 120.42357 | 35034 ft | 481 kts | 27° |
| 2026-05-07 00:16 | 27.51745 | 120.46381 | 35028 ft | 482 kts | 27° |
| 2026-05-07 00:17 | 27.57418 | 120.50426 | 35029 ft | 482 kts | 27° |
| 2026-05-07 00:17 | 27.62130 | 120.53786 | 35030 ft | 482 kts | 27° |
| 2026-05-07 00:18 | 27.68732 | 120.58506 | 35034 ft | 482 kts | 27° |
| 2026-05-07 00:18 | 27.73552 | 120.61611 | 35034 ft | 474 kts | 17° |
| 2026-05-07 00:19 | 27.79816 | 120.63452 | 35031 ft | 458 kts | 359° |
| 2026-05-07 00:19 | 27.86172 | 120.64026 | 35040 ft | 457 kts | 358° |
| 2026-05-07 00:20 | 27.92492 | 120.64616 | 35038 ft | 457 kts | 358° |
| 2026-05-07 00:20 | 27.98841 | 120.65211 | 35037 ft | 458 kts | 358° |
| 2026-05-07 00:21 | 28.05192 | 120.65809 | 35039 ft | 458 kts | 359° |
| 2026-05-07 00:21 | 28.11551 | 120.66434 | 35053 ft | 458 kts | 359° |
| 2026-05-07 00:22 | 28.17897 | 120.67069 | 35049 ft | 458 kts | 359° |
| 2026-05-07 00:22 | 28.24240 | 120.67689 | 35047 ft | 457 kts | 359° |
| 2026-05-07 00:23 | 28.30547 | 120.68304 | 35045 ft | 456 kts | 359° |
| 2026-05-07 00:23 | 28.36871 | 120.68924 | 35055 ft | 456 kts | 359° |
| 2026-05-07 00:24 | 28.43195 | 120.69550 | 35037 ft | 456 kts | 359° |
| 2026-05-07 00:24 | 28.49520 | 120.70176 | 35040 ft | 456 kts | 359° |
| 2026-05-07 00:25 | 28.55797 | 120.70806 | 35036 ft | 456 kts | 359° |
| 2026-05-07 00:25 | 28.62126 | 120.71446 | 35049 ft | 456 kts | 359° |
| 2026-05-07 00:26 | 28.68449 | 120.72090 | 35038 ft | 456 kts | 358° |
| 2026-05-07 00:26 | 28.74785 | 120.72756 | 35031 ft | 457 kts | 359° |
| 2026-05-07 00:27 | 28.81077 | 120.73460 | 35032 ft | 457 kts | 359° |
| 2026-05-07 00:27 | 28.87425 | 120.74167 | 35036 ft | 457 kts | 359° |
| 2026-05-07 00:28 | 28.93764 | 120.74837 | 35024 ft | 457 kts | 358° |
| 2026-05-07 00:28 | 29.00063 | 120.75467 | 35023 ft | 457 kts | 358° |
| 2026-05-07 00:29 | 29.06422 | 120.76104 | 35041 ft | 458 kts | 358° |
| 2026-05-07 00:30 | 29.19119 | 120.77412 | 35022 ft | 459 kts | 358° |
| 2026-05-07 00:30 | 29.25467 | 120.78075 | 35016 ft | 460 kts | 358° |
| 2026-05-07 00:31 | 29.31857 | 120.78743 | 35036 ft | 460 kts | 359° |
| 2026-05-07 00:31 | 29.38251 | 120.79407 | 35021 ft | 461 kts | 358° |
| 2026-05-07 00:32 | 29.44617 | 120.80072 | 35009 ft | 462 kts | 359° |
| 2026-05-07 00:32 | 29.51020 | 120.80735 | 35004 ft | 462 kts | 358° |
| 2026-05-07 00:33 | 29.57355 | 120.82463 | 34995 ft | 480 kts | 19° |
| 2026-05-07 00:33 | 29.60270 | 120.84424 | 34976 ft | 491 kts | 32° |
| 2026-05-07 00:33 | 29.62836 | 120.87053 | 34971 ft | 499 kts | 44° |
| 2026-05-07 00:34 | 29.66888 | 120.93630 | 34331 ft | 507 kts | 53° |
| 2026-05-07 00:34 | 29.68836 | 120.97028 | 33670 ft | 509 kts | 54° |
| 2026-05-07 00:34 | 29.70760 | 121.00388 | 33004 ft | 509 kts | 54° |
| 2026-05-07 00:35 | 29.72709 | 121.03791 | 32326 ft | 510 kts | 54° |
| 2026-05-07 00:35 | 29.74666 | 121.07210 | 31617 ft | 512 kts | 53° |
| 2026-05-07 00:35 | 29.76641 | 121.10660 | 30837 ft | 516 kts | 53° |
| 2026-05-07 00:35 | 29.78622 | 121.14122 | 30072 ft | 517 kts | 54° |
| 2026-05-07 00:36 | 29.80605 | 121.17594 | 29167 ft | 519 kts | 54° |
| 2026-05-07 00:36 | 29.82563 | 121.21021 | 28324 ft | 518 kts | 54° |
| 2026-05-07 00:36 | 29.84530 | 121.24469 | 26835 ft | 521 kts | 54° |
| 2026-05-07 00:36 | 29.86530 | 121.27975 | 25967 ft | 519 kts | 53° |
| 2026-05-07 00:37 | 29.88721 | 121.31258 | 24648 ft | 513 kts | 44° |
| 2026-05-07 00:37 | 29.91320 | 121.34056 | 23366 ft | 507 kts | 34° |
| 2026-05-07 00:37 | 29.94156 | 121.36289 | 21764 ft | 491 kts | 26° |
| 2026-05-07 00:37 | 29.97151 | 121.38159 | 20447 ft | 488 kts | 25° |
| 2026-05-07 00:38 | 30.00106 | 121.39991 | 20062 ft | 475 kts | 25° |
| 2026-05-07 00:38 | 30.03008 | 121.41801 | 19393 ft | 471 kts | 25° |
| 2026-05-07 00:38 | 30.05879 | 121.43601 | 18730 ft | 467 kts | 25° |
| 2026-05-07 00:38 | 30.08686 | 121.45367 | 18047 ft | 463 kts | 26° |
| 2026-05-07 00:39 | 30.11503 | 121.47137 | 17405 ft | 458 kts | 26° |
| 2026-05-07 00:39 | 30.14289 | 121.48886 | 16781 ft | 453 kts | 26° |
| 2026-05-07 00:39 | 30.17053 | 121.50619 | 16184 ft | 448 kts | 26° |
| 2026-05-07 00:39 | 30.19792 | 121.52338 | 15600 ft | 444 kts | 26° |
| 2026-05-07 00:40 | 30.22498 | 121.54041 | 15030 ft | 441 kts | 26° |
| 2026-05-07 00:40 | 30.25177 | 121.55729 | 14447 ft | 438 kts | 27° |
| 2026-05-07 00:40 | 30.27737 | 121.57351 | 13888 ft | 435 kts | 27° |
| 2026-05-07 00:40 | 30.30347 | 121.59031 | 13248 ft | 433 kts | 28° |
| 2026-05-07 00:41 | 30.32956 | 121.60727 | 12642 ft | 428 kts | 28° |
| 2026-05-07 00:41 | 30.35542 | 121.62415 | 12018 ft | 424 kts | 28° |
| 2026-05-07 00:41 | 30.38018 | 121.64047 | 11395 ft | 403 kts | 29° |
| 2026-05-07 00:41 | 30.40395 | 121.65683 | 11038 ft | 391 kts | 30° |
| 2026-05-07 00:42 | 30.42674 | 121.67295 | 10913 ft | 374 kts | 30° |
| 2026-05-07 00:42 | 30.44845 | 121.68850 | 10801 ft | 359 kts | 31° |
| 2026-05-07 00:42 | 30.46903 | 121.70325 | 10668 ft | 346 kts | 31° |
| 2026-05-07 00:42 | 30.48917 | 121.71761 | 10560 ft | 333 kts | 30° |
| 2026-05-07 00:43 | 30.50856 | 121.73137 | 10431 ft | 321 kts | 30° |
| 2026-05-07 00:43 | 30.52702 | 121.74441 | 10239 ft | 315 kts | 30° |
| 2026-05-07 00:43 | 30.54555 | 121.75746 | 10065 ft | 307 kts | 30° |
| 2026-05-07 00:43 | 30.56399 | 121.77012 | 9958 ft | 307 kts | 25° |
| 2026-05-07 00:44 | 30.58395 | 121.77877 | 9666 ft | 304 kts | 11° |
| 2026-05-07 00:44 | 30.60451 | 121.78404 | 9590 ft | 302 kts | 11° |
| 2026-05-07 00:44 | 30.62500 | 121.78949 | 9469 ft | 302 kts | 11° |
| 2026-05-07 00:44 | 30.64545 | 121.79506 | 9349 ft | 301 kts | 11° |
| 2026-05-07 00:45 | 30.66581 | 121.80066 | 9219 ft | 300 kts | 12° |
| 2026-05-07 00:45 | 30.68580 | 121.80619 | 9097 ft | 298 kts | 12° |
| 2026-05-07 00:45 | 30.70600 | 121.81177 | 8972 ft | 297 kts | 11° |
| 2026-05-07 00:45 | 30.72604 | 121.81725 | 8851 ft | 296 kts | 11° |
| 2026-05-07 00:46 | 30.74605 | 121.82267 | 8763 ft | 295 kts | 11° |
| 2026-05-07 00:46 | 30.76610 | 121.82809 | 8657 ft | 295 kts | 11° |
| 2026-05-07 00:46 | 30.78608 | 121.83351 | 8540 ft | 294 kts | 11° |
| 2026-05-07 00:46 | 30.80601 | 121.83893 | 8419 ft | 293 kts | 11° |
| 2026-05-07 00:47 | 30.82562 | 121.84427 | 8300 ft | 292 kts | 11° |
| 2026-05-07 00:47 | 30.84538 | 121.84965 | 8177 ft | 291 kts | 11° |
| 2026-05-07 00:47 | 30.86510 | 121.85506 | 8066 ft | 290 kts | 11° |
| 2026-05-07 00:47 | 30.88477 | 121.86046 | 7939 ft | 289 kts | 11° |
| 2026-05-07 00:48 | 30.90436 | 121.86542 | 7819 ft | 287 kts | 5° |
| 2026-05-07 00:48 | 30.92418 | 121.86521 | 7699 ft | 283 kts | 348° |
| 2026-05-07 00:48 | 30.94286 | 121.85848 | 7576 ft | 279 kts | 332° |
| 2026-05-07 00:48 | 30.95871 | 121.84636 | 7464 ft | 276 kts | 317° |
| 2026-05-07 00:49 | 30.97323 | 121.83166 | 7334 ft | 276 kts | 317° |
| 2026-05-07 00:49 | 30.98777 | 121.81702 | 7229 ft | 275 kts | 317° |
| 2026-05-07 00:49 | 31.00233 | 121.80238 | 7117 ft | 275 kts | 317° |
| 2026-05-07 00:49 | 31.01683 | 121.78785 | 6990 ft | 276 kts | 319° |
| 2026-05-07 00:50 | 31.03137 | 121.77331 | 6877 ft | 275 kts | 318° |
| 2026-05-07 00:50 | 31.04558 | 121.75890 | 6733 ft | 273 kts | 318° |
| 2026-05-07 00:50 | 31.05984 | 121.74425 | 6589 ft | 273 kts | 317° |
| 2026-05-07 00:50 | 31.07407 | 121.72955 | 6453 ft | 273 kts | 318° |
| 2026-05-07 00:51 | 31.08827 | 121.71486 | 6306 ft | 272 kts | 318° |
| 2026-05-07 00:51 | 31.10237 | 121.70029 | 6157 ft | 266 kts | 318° |
| 2026-05-07 00:51 | 31.11593 | 121.68628 | 6030 ft | 255 kts | 317° |
| 2026-05-07 00:51 | 31.12982 | 121.67396 | 5881 ft | 248 kts | 329° |
| 2026-05-07 00:52 | 31.14546 | 121.66602 | 5765 ft | 249 kts | 342° |
| 2026-05-07 00:52 | 31.16207 | 121.66015 | 5639 ft | 248 kts | 342° |
| 2026-05-07 00:52 | 31.17856 | 121.65421 | 5513 ft | 247 kts | 342° |
| 2026-05-07 00:52 | 31.19504 | 121.64831 | 5358 ft | 248 kts | 341° |
| 2026-05-07 00:53 | 31.21148 | 121.64236 | 4972 ft | 244 kts | 341° |
| 2026-05-07 00:53 | 31.22772 | 121.63640 | 4609 ft | 245 kts | 341° |
| 2026-05-07 00:53 | 31.24392 | 121.63037 | 4219 ft | 244 kts | 341° |
| 2026-05-07 00:53 | 31.26013 | 121.62435 | 3853 ft | 246 kts | 341° |
| 2026-05-07 00:54 | 31.27651 | 121.61835 | 3480 ft | 245 kts | 341° |
| 2026-05-07 00:54 | 31.29235 | 121.61254 | 3119 ft | 239 kts | 341° |
| 2026-05-07 00:54 | 31.30759 | 121.60700 | 2990 ft | 223 kts | 342° |
| 2026-05-07 00:54 | 31.32272 | 121.60652 | 2988 ft | 218 kts | 15° |
| 2026-05-07 00:55 | 31.33570 | 121.61553 | 3022 ft | 221 kts | 40° |
| 2026-05-07 00:55 | 31.34418 | 121.63040 | 3034 ft | 222 kts | 68° |
| 2026-05-07 00:55 | 31.34915 | 121.64753 | 3033 ft | 222 kts | 72° |
| 2026-05-07 00:55 | 31.35345 | 121.66495 | 3001 ft | 222 kts | 78° |
| 2026-05-07 00:56 | 31.35392 | 121.68287 | 3003 ft | 218 kts | 98° |
| 2026-05-07 00:56 | 31.34947 | 121.69911 | 2999 ft | 205 kts | 118° |
| 2026-05-07 00:56 | 31.34125 | 121.71222 | 3003 ft | 201 kts | 138° |
| 2026-05-07 00:56 | 31.33009 | 121.72155 | 3010 ft | 196 kts | 156° |
| 2026-05-07 00:57 | 31.31733 | 121.72692 | 3003 ft | 194 kts | 165° |
| 2026-05-07 00:57 | 31.30447 | 121.73179 | 2850 ft | 193 kts | 165° |
| 2026-05-07 00:57 | 31.29167 | 121.73665 | 2625 ft | 192 kts | 164° |
| 2026-05-07 00:57 | 31.27910 | 121.74141 | 2385 ft | 189 kts | 163° |
| 2026-05-07 00:58 | 31.26683 | 121.74606 | 2147 ft | 187 kts | 164° |
| 2026-05-07 00:58 | 31.25461 | 121.75068 | 1916 ft | 178 kts | 165° |
| 2026-05-07 00:58 | 31.24357 | 121.75488 | 1688 ft | 158 kts | 164° |
| 2026-05-07 00:58 | 31.23338 | 121.75872 | 1484 ft | 150 kts | 165° |
| 2026-05-07 00:59 | 31.21381 | 121.76610 | 1010 ft | 144 kts | 163° |
| 2026-05-07 00:59 | 31.20461 | 121.76966 | 871 ft | 140 kts | 163° |
| 2026-05-07 00:59 | 31.19577 | 121.77320 | 787 ft | 130 kts | 162° |
| 2026-05-07 01:00 | 31.18676 | 121.77666 | 609 ft | 140 kts | 165° |
| 2026-05-07 01:00 | 31.17743 | 121.77999 | 412 ft | 144 kts | 164° |
| 2026-05-07 01:00 | 31.16774 | 121.78362 | 230 ft | 146 kts | 162° |
| 2026-05-07 01:00 | 31.15819 | 121.78722 | 39 ft | 139 kts | 162° |
| 2026-05-07 01:01 | 31.15017 | 121.79016 | 25 ft | 98 kts | 162° |
| 2026-05-07 01:01 | 31.14508 | 121.79206 | 24 ft | 57 kts | 162° |
| 2026-05-07 01:01 | 31.14223 | 121.79326 | 21 ft | 32 kts | 151° |
| 2026-05-07 01:01 | 31.14071 | 121.79483 | 22 ft | 18 kts | 135° |
| 2026-05-07 01:02 | 31.14087 | 121.79587 | 23 ft | 16 kts | 28° |
| 2026-05-07 01:02 | 31.14114 | 121.79687 | 23 ft | 14 kts | 134° |
| 2026-05-07 01:02 | 31.14052 | 121.79756 | 23 ft | 14 kts | 93° |
| 2026-05-07 01:02 | 31.14083 | 121.79862 | 23 ft | 15 kts | 70° |
| 2026-05-07 01:03 | 31.14115 | 121.79978 | 23 ft | 16 kts | 73° |
| 2026-05-07 01:03 | 31.14148 | 121.80106 | 24 ft | 17 kts | 73° |
| 2026-05-07 01:03 | 31.14184 | 121.80237 | 23 ft | 14 kts | 73° |
| 2026-05-07 01:03 | 31.14142 | 121.80318 | 24 ft | 13 kts | 166° |
| 2026-05-07 01:04 | 31.14052 | 121.80344 | 23 ft | 14 kts | 166° |
| 2026-05-07 01:04 | 31.13961 | 121.80371 | 23 ft | 11 kts | 165° |
| 2026-05-07 01:04 | 31.13897 | 121.80401 | 24 ft | 10 kts | 158° |
| 2026-05-07 01:04 | 31.13827 | 121.80431 | 23 ft | 12 kts | 162° |
| 2026-05-07 01:05 | 31.13754 | 121.80421 | 23 ft | 12 kts | 233° |
| 2026-05-07 01:05 | 31.13723 | 121.80386 | 23 ft | 1 kts | 221° |
| 2026-05-07 01:05 | 31.13715 | 121.80378 | 23 ft | 2 kts | 221° |
| 2026-05-07 01:05 | 31.13714 | 121.80377 | 23 ft | 0 kts | 221° |